Meteo Giornale » Osservazioni meteo Canada » Victoria Intb C

ore: 15:00 - Osservazioni Meteo Victoria Intb C
Lat. 48° 39' N Lon. 123° 26' W Alt. 20 metri s.l.m.

molto_nuvoloso

22 °C

Molto Nuvoloso

Temp. 24 Ore

11 °C

22 °C

Est/Nord-Est

13 Km/h

Dew point 11 °C

Umidità 49 %

Visibilità  0 Km

Il sole sorge alle ore 06:30

Il sole tramonta alle ore 19:57

Data e Ora Cielo e Fenomeni T °C DP °C Um. % Pres. hPa Vis. km Vento km/h
Oggi h: 15:00 molto_nuvoloso Molto Nuvoloso 22 11 49 1011 0 E/NE 13
Oggi h: 14:00 molto_nuvoloso Molto Nuvoloso 21 12 56 1011 0 E/NE 13
Oggi h: 13:00 molto_nuvoloso Molto Nuvoloso 20 12 59 1012 0 NE 13
Oggi h: 12:00 molto_nuvoloso Molto Nuvoloso 20 13 64 1013 0 NE 9.3
Oggi h: 11:00 molto_nuvoloso Molto Nuvoloso 19 12 63 1013 0 E/NE 11.1
Oggi h: 10:00 molto_nuvoloso Molto Nuvoloso 17 13 77 1014 0 N 5.5
Oggi h: 09:00 molto_nuvoloso Molto Nuvoloso 16 12 77 1014 0 O/NO 9.3
Oggi h: 08:00 molto_nuvoloso Molto Nuvoloso 14 13 93 1015 0 O 7.4
Oggi h: 07:06 molto_nuvoloso Molto Nuvoloso 11 11 100 1014 0 O/SO 7.4
Oggi h: 07:00 molto_nuvoloso Molto Nuvoloso 12 12 100 1014 0 O/SO 7.4
Oggi h: 06:00 nuvoloso Nuvoloso 12 12 100 1015 0 O 7.4
Oggi h: 05:00 poco_nuvoloso Poco Nuvoloso 12 11 93 1015 0 N 5.5
Oggi h: 04:00 poco_nuvoloso Poco Nuvoloso 11 11 100 1015 0 O/SO 7.4
Oggi h: 03:00 poco_nuvoloso Poco Nuvoloso 12 12 100 1016 0 N 5.5
Oggi h: 02:00 poco_nuvoloso Poco Nuvoloso 11 11 100 1016 0 N 5.5
Oggi h: 01:00 molto_nuvoloso Molto Nuvoloso 13 11 87 1016 0 N 5.5
Oggi h: 00:00 molto_nuvoloso Molto Nuvoloso 13 11 87 1017 0 N 3.7
Ieri h: 23:00 poco_nuvoloso Poco Nuvoloso 13 11 87 1017 0 N 3.7
Ieri h: 22:00 molto_nuvoloso Molto Nuvoloso 13 11 87 1018 0 N 0
Ieri h: 21:00 molto_nuvoloso Molto Nuvoloso 14 12 87 1018 0 N 0
Ieri h: 20:00 molto_nuvoloso Molto Nuvoloso 15 12 82 1018 0 N 3.7
Ieri h: 19:00 molto_nuvoloso Molto Nuvoloso 15 12 82 1018 0 N 5.5
Ieri h: 18:00 molto_nuvoloso Molto Nuvoloso 16 12 77 1018 0 E 7.4
Ieri h: 17:00 molto_nuvoloso Molto Nuvoloso 16 12 77 1018 0 E/SE 9.3
Ieri h: 16:00 molto_nuvoloso Molto Nuvoloso 16 12 77 1019 0 SE 16.7